sensor_id;sensor_type;location;lat;lon;timestamp;pressure;altitude;pressure_sealevel;temperature;humidity
24160;BME280;62385;41.594;23.808;2024-01-11T00:00:35;96359.69;;;-1.94;76.20
24160;BME280;62385;41.594;23.808;2024-01-11T00:03:01;96403.91;;;-1.94;76.88
24160;BME280;62385;41.594;23.808;2024-01-11T00:05:27;96416.06;;;-1.58;77.10
24160;BME280;62385;41.594;23.808;2024-01-11T00:07:52;96389.59;;;-1.49;76.25
24160;BME280;62385;41.594;23.808;2024-01-11T00:10:18;96361.06;;;-1.69;76.92
24160;BME280;62385;41.594;23.808;2024-01-11T00:12:44;96419.44;;;-1.39;76.39
24160;BME280;62385;41.594;23.808;2024-01-11T00:15:09;96396.81;;;-1.37;76.37
24160;BME280;62385;41.594;23.808;2024-01-11T00:17:36;96390.72;;;-1.55;76.65
24160;BME280;62385;41.594;23.808;2024-01-11T00:20:02;96398.38;;;-1.17;75.66
24160;BME280;62385;41.594;23.808;2024-01-11T00:22:28;96389.78;;;-1.19;75.84
24160;BME280;62385;41.594;23.808;2024-01-11T00:24:53;96390.56;;;-1.17;75.86
24160;BME280;62385;41.594;23.808;2024-01-11T00:27:19;96387.97;;;-1.17;75.46
24160;BME280;62385;41.594;23.808;2024-01-11T00:29:45;96394.25;;;-1.38;75.77
24160;BME280;62385;41.594;23.808;2024-01-11T00:32:12;96389.13;;;-1.40;76.21
24160;BME280;62385;41.594;23.808;2024-01-11T00:34:38;96387.63;;;-0.94;75.15
24160;BME280;62385;41.594;23.808;2024-01-11T00:37:04;96396.28;;;-0.94;74.75
24160;BME280;62385;41.594;23.808;2024-01-11T00:39:29;96382.75;;;-1.00;74.98
24160;BME280;62385;41.594;23.808;2024-01-11T00:41:55;96402.38;;;-0.77;74.70
24160;BME280;62385;41.594;23.808;2024-01-11T00:44:21;96388.13;;;-1.37;75.17
24160;BME280;62385;41.594;23.808;2024-01-11T00:46:47;96396.41;;;-1.29;74.80
24160;BME280;62385;41.594;23.808;2024-01-11T00:49:12;96375.25;;;-1.41;75.94
24160;BME280;62385;41.594;23.808;2024-01-11T00:51:38;96379.03;;;-1.29;74.74
24160;BME280;62385;41.594;23.808;2024-01-11T00:54:03;96390.25;;;-1.11;74.53
24160;BME280;62385;41.594;23.808;2024-01-11T00:56:29;96376.41;;;-1.46;75.03
24160;BME280;62385;41.594;23.808;2024-01-11T00:58:55;96371.72;;;-1.57;74.89
24160;BME280;62385;41.594;23.808;2024-01-11T01:01:20;96386.38;;;-1.54;75.43
24160;BME280;62385;41.594;23.808;2024-01-11T01:03:46;96372.13;;;-1.30;75.48
24160;BME280;62385;41.594;23.808;2024-01-11T01:06:12;96363.22;;;-1.60;75.16
24160;BME280;62385;41.594;23.808;2024-01-11T01:08:37;96378.47;;;-1.18;75.02
24160;BME280;62385;41.594;23.808;2024-01-11T01:11:03;96377.72;;;-1.37;74.49
24160;BME280;62385;41.594;23.808;2024-01-11T01:13:28;96363.22;;;-1.60;75.05
24160;BME280;62385;41.594;23.808;2024-01-11T01:15:55;96376.66;;;-1.33;74.65
24160;BME280;62385;41.594;23.808;2024-01-11T01:18:20;96380.25;;;-1.70;75.45
24160;BME280;62385;41.594;23.808;2024-01-11T01:20:46;96349.75;;;-1.68;75.05
24160;BME280;62385;41.594;23.808;2024-01-11T01:23:11;96382.13;;;-1.74;75.84
24160;BME280;62385;41.594;23.808;2024-01-11T01:25:37;96373.13;;;-1.50;75.19
24160;BME280;62385;41.594;23.808;2024-01-11T01:28:03;96358.34;;;-1.66;75.31
24160;BME280;62385;41.594;23.808;2024-01-11T01:30:29;96362.69;;;-1.67;75.27
24160;BME280;62385;41.594;23.808;2024-01-11T01:32:54;96371.25;;;-1.65;74.99
24160;BME280;62385;41.594;23.808;2024-01-11T01:35:20;96366.13;;;-1.83;75.80
24160;BME280;62385;41.594;23.808;2024-01-11T01:37:45;96365.06;;;-1.79;75.43
24160;BME280;62385;41.594;23.808;2024-01-11T01:40:12;96366.13;;;-1.83;75.69
24160;BME280;62385;41.594;23.808;2024-01-11T01:42:45;96367.94;;;-1.86;75.33
24160;BME280;62385;41.594;23.808;2024-01-11T01:45:11;96366.13;;;-1.83;75.08
24160;BME280;62385;41.594;23.808;2024-01-11T01:47:39;96363.34;;;-1.98;75.66
24160;BME280;62385;41.594;23.808;2024-01-11T01:50:06;96357.56;;;-1.68;75.21
24160;BME280;62385;41.594;23.808;2024-01-11T01:52:32;96361.94;;;-1.52;74.39
24160;BME280;62385;41.594;23.808;2024-01-11T01:54:58;96358.47;;;-1.87;75.38
24160;BME280;62385;41.594;23.808;2024-01-11T01:57:24;96348.81;;;-1.84;75.16
24160;BME280;62385;41.594;23.808;2024-01-11T01:59:51;96358.94;;;-1.78;75.09
24160;BME280;62385;41.594;23.808;2024-01-11T02:02:20;96341.00;;;-2.02;75.43
24160;BME280;62385;41.594;23.808;2024-01-11T02:04:46;96337.41;;;-1.82;75.66
24160;BME280;62385;41.594;23.808;2024-01-11T02:07:13;96355.47;;;-1.96;75.07
24160;BME280;62385;41.594;23.808;2024-01-11T02:09:40;96331.41;;;-1.82;75.28
24160;BME280;62385;41.594;23.808;2024-01-11T02:12:05;96335.53;;;-1.78;75.01
24160;BME280;62385;41.594;23.808;2024-01-11T02:14:32;96333.22;;;-1.67;75.24
24160;BME280;62385;41.594;23.808;2024-01-11T02:16:57;96331.13;;;-2.12;74.76
24160;BME280;62385;41.594;23.808;2024-01-11T02:19:23;96318.38;;;-2.00;74.83
24160;BME280;62385;41.594;23.808;2024-01-11T02:21:51;96321.56;;;-1.95;75.60
24160;BME280;62385;41.594;23.808;2024-01-11T02:24:18;96312.47;;;-1.86;75.22
24160;BME280;62385;41.594;23.808;2024-01-11T02:27:01;96319.38;;;-1.68;74.23
24160;BME280;62385;41.594;23.808;2024-01-11T02:29:27;96314.59;;;-1.94;75.25
24160;BME280;62385;41.594;23.808;2024-01-11T02:31:57;96310.88;;;-1.71;74.80
24160;BME280;62385;41.594;23.808;2024-01-11T02:34:24;96315.59;;;-1.97;74.66
24160;BME280;62385;41.594;23.808;2024-01-11T02:36:50;96304.88;;;-2.08;75.48
24160;BME280;62385;41.594;23.808;2024-01-11T02:39:17;96314.38;;;-1.90;75.06
24160;BME280;62385;41.594;23.808;2024-01-11T02:41:44;96320.59;;;-1.92;75.00
24160;BME280;62385;41.594;23.808;2024-01-11T02:44:10;96307.31;;;-2.22;75.10
24160;BME280;62385;41.594;23.808;2024-01-11T02:46:35;96319.13;;;-1.98;75.60
24160;BME280;62385;41.594;23.808;2024-01-11T02:49:01;96296.78;;;-1.67;73.61
24160;BME280;62385;41.594;23.808;2024-01-11T02:51:26;96304.50;;;-2.00;75.46
24160;BME280;62385;41.594;23.808;2024-01-11T02:53:52;96312.34;;;-1.83;75.17
24160;BME280;62385;41.594;23.808;2024-01-11T02:56:18;96287.38;;;-2.04;74.67
24160;BME280;62385;41.594;23.808;2024-01-11T02:58:43;96305.25;;;-2.15;74.90
24160;BME280;62385;41.594;23.808;2024-01-11T03:01:09;96303.44;;;-1.96;74.91
24160;BME280;62385;41.594;23.808;2024-01-11T03:03:34;96302.75;;;-2.36;76.05
24160;BME280;62385;41.594;23.808;2024-01-11T03:06:01;96285.34;;;-2.34;76.25
24160;BME280;62385;41.594;23.808;2024-01-11T03:08:26;96285.84;;;-1.91;75.82
24160;BME280;62385;41.594;23.808;2024-01-11T03:10:52;96291.97;;;-1.92;75.31
24160;BME280;62385;41.594;23.808;2024-01-11T03:13:17;96289.88;;;-2.03;76.56
24160;BME280;62385;41.594;23.808;2024-01-11T03:15:43;96277.63;;;-1.49;75.64
24160;BME280;62385;41.594;23.808;2024-01-11T03:18:09;96288.41;;;-1.40;75.03
24160;BME280;62385;41.594;23.808;2024-01-11T03:20:34;96292.25;;;-1.47;75.73
24160;BME280;62385;41.594;23.808;2024-01-11T03:23:00;96290.00;;;-1.70;76.14
24160;BME280;62385;41.594;23.808;2024-01-11T03:25:26;96286.59;;;-1.55;75.90
24160;BME280;62385;41.594;23.808;2024-01-11T03:27:51;96296.31;;;-1.93;75.42
24160;BME280;62385;41.594;23.808;2024-01-11T03:30:17;96285.13;;;-1.77;76.50
24160;BME280;62385;41.594;23.808;2024-01-11T03:32:42;96269.34;;;-1.40;75.51
24160;BME280;62385;41.594;23.808;2024-01-11T03:35:08;96270.09;;;-1.38;74.63
24160;BME280;62385;41.594;23.808;2024-01-11T03:37:34;96262.13;;;-1.35;75.31
24160;BME280;62385;41.594;23.808;2024-01-11T03:40:01;96270.50;;;-1.13;75.48
24160;BME280;62385;41.594;23.808;2024-01-11T03:42:27;96267.72;;;-1.10;75.30
24160;BME280;62385;41.594;23.808;2024-01-11T03:44:53;96266.97;;;-1.12;76.09
24160;BME280;62385;41.594;23.808;2024-01-11T03:47:18;96273.47;;;-1.53;78.31
24160;BME280;62385;41.594;23.808;2024-01-11T03:49:44;96263.25;;;-1.23;75.13
24160;BME280;62385;41.594;23.808;2024-01-11T03:52:10;96270.84;;;-2.03;75.91
24160;BME280;62385;41.594;23.808;2024-01-11T03:54:35;96262.56;;;-1.94;75.64
24160;BME280;62385;41.594;23.808;2024-01-11T03:57:01;96260.91;;;-1.95;75.72
24160;BME280;62385;41.594;23.808;2024-01-11T03:59:26;96254.84;;;-1.78;75.55
24160;BME280;62385;41.594;23.808;2024-01-11T04:01:52;96258.50;;;-1.65;75.16
24160;BME280;62385;41.594;23.808;2024-01-11T04:04:18;96248.69;;;-1.60;74.03
24160;BME280;62385;41.594;23.808;2024-01-11T04:06:44;96250.63;;;-1.81;75.05
24160;BME280;62385;41.594;23.808;2024-01-11T04:09:10;96248.72;;;-1.95;74.98
24160;BME280;62385;41.594;23.808;2024-01-11T04:11:36;96251.94;;;-1.90;74.49
24160;BME280;62385;41.594;23.808;2024-01-11T04:14:02;96250.28;;;-1.91;74.22
24160;BME280;62385;41.594;23.808;2024-01-11T04:16:27;96247.78;;;-2.45;74.93
24160;BME280;62385;41.594;23.808;2024-01-11T04:18:53;96252.31;;;-2.14;75.48
24160;BME280;62385;41.594;23.808;2024-01-11T04:21:26;96256.53;;;-2.12;74.15
24160;BME280;62385;41.594;23.808;2024-01-11T04:23:55;96248.41;;;-1.89;73.99
24160;BME280;62385;41.594;23.808;2024-01-11T04:26:20;96241.34;;;-1.69;73.82
24160;BME280;62385;41.594;23.808;2024-01-11T04:28:47;96257.13;;;-2.07;74.15
24160;BME280;62385;41.594;23.808;2024-01-11T04:31:13;96259.13;;;-2.29;74.62
24160;BME280;62385;41.594;23.808;2024-01-11T04:33:48;96252.47;;;-1.83;73.48
24160;BME280;62385;41.594;23.808;2024-01-11T04:36:14;96230.97;;;-2.04;73.33
24160;BME280;62385;41.594;23.808;2024-01-11T04:38:39;96257.97;;;-2.06;74.48
24160;BME280;62385;41.594;23.808;2024-01-11T04:41:09;96271.44;;;-2.33;73.64
24160;BME280;62385;41.594;23.808;2024-01-11T04:43:39;96266.75;;;-2.26;74.01
24160;BME280;62385;41.594;23.808;2024-01-11T04:46:18;96267.84;;;-2.13;74.13
24160;BME280;62385;41.594;23.808;2024-01-11T04:48:45;96264.31;;;-1.95;73.21
24160;BME280;62385;41.594;23.808;2024-01-11T04:51:12;96274.25;;;-2.03;73.27
24160;BME280;62385;41.594;23.808;2024-01-11T04:53:39;96269.91;;;-2.02;74.20
24160;BME280;62385;41.594;23.808;2024-01-11T04:56:06;96268.72;;;-1.95;73.06
24160;BME280;62385;41.594;23.808;2024-01-11T04:58:32;96262.44;;;-2.08;74.63
24160;BME280;62385;41.594;23.808;2024-01-11T05:00:57;96265.88;;;-1.91;73.06
24160;BME280;62385;41.594;23.808;2024-01-11T05:03:23;96269.19;;;-2.23;74.05
24160;BME280;62385;41.594;23.808;2024-01-11T05:05:48;96252.53;;;-2.36;73.89
24160;BME280;62385;41.594;23.808;2024-01-11T05:08:14;96257.19;;;-2.43;73.99
24160;BME280;62385;41.594;23.808;2024-01-11T05:10:40;96247.41;;;-2.73;74.02
24160;BME280;62385;41.594;23.808;2024-01-11T05:13:05;96263.13;;;-2.76;74.75
24160;BME280;62385;41.594;23.808;2024-01-11T05:15:31;96274.56;;;-2.62;74.58
24160;BME280;62385;41.594;23.808;2024-01-11T05:17:58;96252.34;;;-2.86;74.61
24160;BME280;62385;41.594;23.808;2024-01-11T05:20:24;96214.84;;;-3.18;74.80
24160;BME280;62385;41.594;23.808;2024-01-11T05:22:49;96225.44;;;-3.22;74.91
24160;BME280;62385;41.594;23.808;2024-01-11T05:25:15;96228.81;;;-3.20;75.03
24160;BME280;62385;41.594;23.808;2024-01-11T05:27:41;96225.50;;;-3.05;75.43
24160;BME280;62385;41.594;23.808;2024-01-11T05:30:07;96254.09;;;-2.87;75.01
24160;BME280;62385;41.594;23.808;2024-01-11T05:32:32;96266.66;;;-2.77;75.68
24160;BME280;62385;41.594;23.808;2024-01-11T05:34:58;96245.28;;;-2.65;75.10
24160;BME280;62385;41.594;23.808;2024-01-11T05:37:23;96255.09;;;-2.53;75.13
24160;BME280;62385;41.594;23.808;2024-01-11T05:39:49;96253.75;;;-2.26;75.08
24160;BME280;62385;41.594;23.808;2024-01-11T05:42:15;96247.03;;;-2.13;74.32
24160;BME280;62385;41.594;23.808;2024-01-11T05:44:41;96252.38;;;-2.33;73.86
24160;BME280;62385;41.594;23.808;2024-01-11T05:47:06;96249.28;;;-2.58;74.87
24160;BME280;62385;41.594;23.808;2024-01-11T05:49:32;96252.88;;;-2.80;74.39
24160;BME280;62385;41.594;23.808;2024-01-11T05:51:57;96226.78;;;-2.95;74.92
24160;BME280;62385;41.594;23.808;2024-01-11T05:54:23;96238.25;;;-2.63;74.36
24160;BME280;62385;41.594;23.808;2024-01-11T05:56:49;96250.22;;;-2.78;74.26
24160;BME280;62385;41.594;23.808;2024-01-11T05:59:18;96229.44;;;-2.97;74.89
24160;BME280;62385;41.594;23.808;2024-01-11T06:01:43;96220.91;;;-2.82;74.94
24160;BME280;62385;41.594;23.808;2024-01-11T06:04:09;96198.97;;;-2.93;74.80
24160;BME280;62385;41.594;23.808;2024-01-11T06:06:35;96220.44;;;-2.71;74.46
24160;BME280;62385;41.594;23.808;2024-01-11T06:09:00;96232.56;;;-2.53;74.57
24160;BME280;62385;41.594;23.808;2024-01-11T06:11:26;96227.34;;;-2.53;74.25
24160;BME280;62385;41.594;23.808;2024-01-11T06:13:52;96206.56;;;-2.01;73.49
24160;BME280;62385;41.594;23.808;2024-01-11T06:16:18;96234.56;;;-2.06;73.23
24160;BME280;62385;41.594;23.808;2024-01-11T06:18:43;96219.22;;;-1.78;72.84
24160;BME280;62385;41.594;23.808;2024-01-11T06:21:10;96231.13;;;-1.90;72.58
24160;BME280;62385;41.594;23.808;2024-01-11T06:23:35;96193.09;;;-2.09;72.40
24160;BME280;62385;41.594;23.808;2024-01-11T06:26:01;96222.41;;;-2.23;72.83
24160;BME280;62385;41.594;23.808;2024-01-11T06:28:27;96239.19;;;-2.11;73.86
24160;BME280;62385;41.594;23.808;2024-01-11T06:30:52;96229.59;;;-2.11;73.31
24160;BME280;62385;41.594;23.808;2024-01-11T06:33:18;96227.88;;;-1.77;72.10
24160;BME280;62385;41.594;23.808;2024-01-11T06:35:45;96225.25;;;-1.60;72.45
24160;BME280;62385;41.594;23.808;2024-01-11T06:38:11;96229.41;;;-1.73;73.72
24160;BME280;62385;41.594;23.808;2024-01-11T06:40:37;96214.81;;;-1.93;74.13
24160;BME280;62385;41.594;23.808;2024-01-11T06:43:02;96231.25;;;-1.58;74.13
24160;BME280;62385;41.594;23.808;2024-01-11T06:45:28;96214.78;;;-1.26;73.55
24160;BME280;62385;41.594;23.808;2024-01-11T06:47:54;96205.47;;;-1.47;73.85
24160;BME280;62385;41.594;23.808;2024-01-11T06:50:19;96241.94;;;-1.47;74.05
24160;BME280;62385;41.594;23.808;2024-01-11T06:52:45;96211.38;;;-1.94;75.86
24160;BME280;62385;41.594;23.808;2024-01-11T06:55:10;96202.38;;;-1.54;74.66
24160;BME280;62385;41.594;23.808;2024-01-11T06:57:36;96225.88;;;-1.55;74.81
24160;BME280;62385;41.594;23.808;2024-01-11T07:00:02;96165.78;;;-2.01;75.48
24160;BME280;62385;41.594;23.808;2024-01-11T07:02:28;96174.47;;;-1.84;75.27
24160;BME280;62385;41.594;23.808;2024-01-11T07:04:53;96188.81;;;-1.60;75.58
24160;BME280;62385;41.594;23.808;2024-01-11T07:07:19;96223.78;;;-1.00;74.80
24160;BME280;62385;41.594;23.808;2024-01-11T07:09:44;96214.03;;;-0.81;74.09
24160;BME280;62385;41.594;23.808;2024-01-11T07:12:10;96217.25;;;-0.91;74.72
24160;BME280;62385;41.594;23.808;2024-01-11T07:14:36;96223.63;;;-0.81;74.64
24160;BME280;62385;41.594;23.808;2024-01-11T07:17:01;96209.31;;;-0.90;75.08
24160;BME280;62385;41.594;23.808;2024-01-11T07:19:27;96223.19;;;-0.74;74.65
24160;BME280;62385;41.594;23.808;2024-01-11T07:21:53;96218.81;;;-0.73;74.52
24160;BME280;62385;41.594;23.808;2024-01-11T07:24:19;96211.31;;;-0.48;73.96
24160;BME280;62385;41.594;23.808;2024-01-11T07:26:44;96218.00;;;-0.28;73.73
24160;BME280;62385;41.594;23.808;2024-01-11T07:29:10;96213.19;;;-0.50;74.44
24160;BME280;62385;41.594;23.808;2024-01-11T07:31:36;96202.88;;;-0.22;73.37
24160;BME280;62385;41.594;23.808;2024-01-11T07:34:01;96203.72;;;-0.21;74.18
24160;BME280;62385;41.594;23.808;2024-01-11T07:36:27;96206.84;;;-0.30;74.10
24160;BME280;62385;41.594;23.808;2024-01-11T07:38:53;96205.88;;;-0.14;73.91
24160;BME280;62385;41.594;23.808;2024-01-11T07:41:18;96187.72;;;-0.31;74.67
24160;BME280;62385;41.594;23.808;2024-01-11T07:43:46;96197.94;;;-0.12;73.62
24160;BME280;62385;41.594;23.808;2024-01-11T07:46:12;96198.31;;;-0.04;74.16
24160;BME280;62385;41.594;23.808;2024-01-11T07:48:37;96197.00;;;-0.11;73.68
24160;BME280;62385;41.594;23.808;2024-01-11T07:51:03;96197.13;;;0.02;74.19
24160;BME280;62385;41.594;23.808;2024-01-11T07:53:30;96195.81;;;0.38;72.98
24160;BME280;62385;41.594;23.808;2024-01-11T07:55:57;96187.19;;;0.08;73.65
24160;BME280;62385;41.594;23.808;2024-01-11T07:58:23;96190.84;;;0.20;73.92
24160;BME280;62385;41.594;23.808;2024-01-11T08:00:49;96188.50;;;0.15;74.66
24160;BME280;62385;41.594;23.808;2024-01-11T08:03:15;96173.84;;;0.13;74.42
24160;BME280;62385;41.594;23.808;2024-01-11T08:05:41;96181.31;;;0.19;74.56
24160;BME280;62385;41.594;23.808;2024-01-11T08:08:08;96179.19;;;0.11;74.52
24160;BME280;62385;41.594;23.808;2024-01-11T08:10:34;96176.25;;;-0.13;75.53
24160;BME280;62385;41.594;23.808;2024-01-11T08:13:00;96180.28;;;0.21;74.11
24160;BME280;62385;41.594;23.808;2024-01-11T08:15:25;96186.75;;;0.16;73.72
24160;BME280;62385;41.594;23.808;2024-01-11T08:17:53;96152.34;;;0.23;73.84
24160;BME280;62385;41.594;23.808;2024-01-11T08:20:18;96160.63;;;0.16;74.52
24160;BME280;62385;41.594;23.808;2024-01-11T08:22:45;96175.84;;;0.23;73.81
24160;BME280;62385;41.594;23.808;2024-01-11T08:25:12;96168.47;;;0.44;74.05
24160;BME280;62385;41.594;23.808;2024-01-11T08:27:38;96152.25;;;0.39;73.37
24160;BME280;62385;41.594;23.808;2024-01-11T08:30:04;96149.72;;;0.37;74.25
24160;BME280;62385;41.594;23.808;2024-01-11T08:32:30;96154.75;;;0.55;73.88
24160;BME280;62385;41.594;23.808;2024-01-11T08:34:59;96152.91;;;0.57;73.88
24160;BME280;62385;41.594;23.808;2024-01-11T08:37:24;96158.03;;;0.30;74.02
24160;BME280;62385;41.594;23.808;2024-01-11T08:39:50;96154.31;;;0.48;74.11
24160;BME280;62385;41.594;23.808;2024-01-11T08:42:16;96138.81;;;0.45;74.38
24160;BME280;62385;41.594;23.808;2024-01-11T08:44:42;96153.75;;;0.57;73.43
24160;BME280;62385;41.594;23.808;2024-01-11T08:47:08;96147.19;;;0.64;73.98
24160;BME280;62385;41.594;23.808;2024-01-11T08:49:41;96137.63;;;1.06;73.68
24160;BME280;62385;41.594;23.808;2024-01-11T08:52:07;96135.78;;;0.79;72.92
24160;BME280;62385;41.594;23.808;2024-01-11T08:54:33;96123.34;;;0.97;73.49
24160;BME280;62385;41.594;23.808;2024-01-11T08:56:59;96115.22;;;1.02;73.15
24160;BME280;62385;41.594;23.808;2024-01-11T08:59:24;96115.84;;;1.05;73.08
24160;BME280;62385;41.594;23.808;2024-01-11T09:01:52;96115.00;;;0.78;72.40
24160;BME280;62385;41.594;23.808;2024-01-11T09:04:17;96097.34;;;0.81;73.09
24160;BME280;62385;41.594;23.808;2024-01-11T09:06:44;96092.19;;;0.94;71.89
24160;BME280;62385;41.594;23.808;2024-01-11T09:09:12;96084.53;;;1.18;71.42
24160;BME280;62385;41.594;23.808;2024-01-11T09:11:39;96075.13;;;1.15;71.43
24160;BME280;62385;41.594;23.808;2024-01-11T09:14:08;96079.22;;;1.19;70.71
24160;BME280;62385;41.594;23.808;2024-01-11T09:16:38;96064.84;;;0.85;71.30
24160;BME280;62385;41.594;23.808;2024-01-11T09:19:05;96071.06;;;0.97;71.05
24160;BME280;62385;41.594;23.808;2024-01-11T09:21:31;96064.59;;;1.29;69.83
24160;BME280;62385;41.594;23.808;2024-01-11T09:23:56;96051.72;;;1.26;70.34
24160;BME280;62385;41.594;23.808;2024-01-11T09:26:22;96046.72;;;1.36;69.71
24160;BME280;62385;41.594;23.808;2024-01-11T09:28:48;96036.25;;;1.36;69.62
24160;BME280;62385;41.594;23.808;2024-01-11T09:31:14;96030.75;;;1.53;68.89
24160;BME280;62385;41.594;23.808;2024-01-11T09:33:39;96024.16;;;1.60;68.99
24160;BME280;62385;41.594;23.808;2024-01-11T09:36:07;96018.94;;;1.73;68.40
24160;BME280;62385;41.594;23.808;2024-01-11T09:38:35;95967.63;;;1.45;67.63
24160;BME280;62385;41.594;23.808;2024-01-11T09:41:07;95967.22;;;1.76;66.67
24160;BME280;62385;41.594;23.808;2024-01-11T10:10:37;95907.50;;;2.54;65.94
24160;BME280;62385;41.594;23.808;2024-01-11T10:13:04;95889.91;;;2.56;64.57
24160;BME280;62385;41.594;23.808;2024-01-11T10:15:33;95950.41;;;2.77;64.90
24160;BME280;62385;41.594;23.808;2024-01-11T10:17:59;95912.13;;;2.51;63.92
24160;BME280;62385;41.594;23.808;2024-01-11T10:20:25;95929.69;;;2.61;62.99
24160;BME280;62385;41.594;23.808;2024-01-11T10:22:51;95907.31;;;2.45;63.14
24160;BME280;62385;41.594;23.808;2024-01-11T10:25:18;95897.13;;;2.53;62.42
24160;BME280;62385;41.594;23.808;2024-01-11T10:27:44;95937.97;;;3.03;61.14
24160;BME280;62385;41.594;23.808;2024-01-11T10:30:12;95883.59;;;2.59;61.64
24160;BME280;62385;41.594;23.808;2024-01-11T10:32:45;95874.13;;;2.80;65.17
24160;BME280;62385;41.594;23.808;2024-01-11T10:38:14;95920.63;;;3.24;62.02
24160;BME280;62385;41.594;23.808;2024-01-11T10:40:49;95901.56;;;3.44;61.04
24160;BME280;62385;41.594;23.808;2024-01-11T10:43:19;95842.59;;;3.04;62.16
24160;BME280;62385;41.594;23.808;2024-01-11T10:45:48;95838.19;;;2.93;62.38
24160;BME280;62385;41.594;23.808;2024-01-11T10:48:21;95824.09;;;2.94;62.70
24160;BME280;62385;41.594;23.808;2024-01-11T10:50:54;95834.25;;;2.99;62.31
24160;BME280;62385;41.594;23.808;2024-01-11T10:53:43;95807.06;;;2.89;61.87
24160;BME280;62385;41.594;23.808;2024-01-11T10:56:15;95819.78;;;2.82;60.32
24160;BME280;62385;41.594;23.808;2024-01-11T10:58:44;95855.31;;;3.43;61.86
24160;BME280;62385;41.594;23.808;2024-01-11T11:01:13;95800.53;;;3.16;61.08
24160;BME280;62385;41.594;23.808;2024-01-11T11:03:39;95849.56;;;3.49;59.79
24160;BME280;62385;41.594;23.808;2024-01-11T11:06:08;95796.84;;;3.30;60.51
24160;BME280;62385;41.594;23.808;2024-01-11T11:08:36;95842.31;;;3.64;60.82
24160;BME280;62385;41.594;23.808;2024-01-11T11:11:03;95783.84;;;3.29;61.75
24160;BME280;62385;41.594;23.808;2024-01-11T11:13:33;95772.97;;;3.44;60.32
24160;BME280;62385;41.594;23.808;2024-01-11T11:16:03;95771.56;;;3.29;60.97
24160;BME280;62385;41.594;23.808;2024-01-11T11:18:32;95760.34;;;3.49;60.75
24160;BME280;62385;41.594;23.808;2024-01-11T11:21:09;95753.56;;;3.47;60.98
24160;BME280;62385;41.594;23.808;2024-01-11T11:23:36;95773.84;;;3.56;60.90
24160;BME280;62385;41.594;23.808;2024-01-11T11:26:02;95739.13;;;3.30;61.17
24160;BME280;62385;41.594;23.808;2024-01-11T11:28:33;95771.72;;;3.82;61.33
24160;BME280;62385;41.594;23.808;2024-01-11T11:31:02;95746.97;;;3.63;59.88
24160;BME280;62385;41.594;23.808;2024-01-11T11:33:28;95738.06;;;3.87;59.97
24160;BME280;62385;41.594;23.808;2024-01-11T11:35:57;95725.94;;;4.06;60.70
24160;BME280;62385;41.594;23.808;2024-01-11T11:38:26;95769.94;;;4.25;61.48
24160;BME280;62385;41.594;23.808;2024-01-11T11:40:53;95770.00;;;4.14;60.49
24160;BME280;62385;41.594;23.808;2024-01-11T11:43:23;95735.59;;;4.06;59.03
24160;BME280;62385;41.594;23.808;2024-01-11T11:45:50;95729.69;;;4.25;59.45
24160;BME280;62385;41.594;23.808;2024-01-11T11:51:21;95743.78;;;4.55;59.87
24160;BME280;62385;41.594;23.808;2024-01-11T11:53:48;95729.50;;;4.37;59.80
24160;BME280;62385;41.594;23.808;2024-01-11T11:56:14;95726.50;;;4.62;60.02
24160;BME280;62385;41.594;23.808;2024-01-11T11:58:43;95707.97;;;4.43;58.28
24160;BME280;62385;41.594;23.808;2024-01-11T12:01:09;95701.56;;;4.57;57.58
24160;BME280;62385;41.594;23.808;2024-01-11T12:03:37;95700.47;;;4.59;58.35
24160;BME280;62385;41.594;23.808;2024-01-11T12:06:04;95704.00;;;4.49;57.86
24160;BME280;62385;41.594;23.808;2024-01-11T12:08:34;95690.41;;;4.44;56.62
24160;BME280;62385;41.594;23.808;2024-01-11T12:11:01;95683.13;;;4.78;57.09
24160;BME280;62385;41.594;23.808;2024-01-11T12:13:27;95668.25;;;4.88;57.49
24160;BME280;62385;41.594;23.808;2024-01-11T12:15:53;95684.66;;;5.10;57.12
24160;BME280;62385;41.594;23.808;2024-01-11T12:18:18;95671.06;;;5.05;56.99
24160;BME280;62385;41.594;23.808;2024-01-11T12:20:45;95658.50;;;5.09;56.86
24160;BME280;62385;41.594;23.808;2024-01-11T12:23:10;95658.13;;;5.23;56.66
24160;BME280;62385;41.594;23.808;2024-01-11T12:25:40;95650.00;;;5.05;56.87
24160;BME280;62385;41.594;23.808;2024-01-11T12:28:06;95653.34;;;5.07;56.57
24160;BME280;62385;41.594;23.808;2024-01-11T12:30:32;95644.56;;;5.28;56.55
24160;BME280;62385;41.594;23.808;2024-01-11T12:32:58;95639.47;;;5.45;54.90
24160;BME280;62385;41.594;23.808;2024-01-11T12:35:27;95642.47;;;5.31;54.98
24160;BME280;62385;41.594;23.808;2024-01-11T12:38:08;95629.84;;;5.16;56.20
24160;BME280;62385;41.594;23.808;2024-01-11T12:40:37;95638.91;;;4.92;56.34
24160;BME280;62385;41.594;23.808;2024-01-11T12:43:07;95619.84;;;5.09;56.00
24160;BME280;62385;41.594;23.808;2024-01-11T12:45:34;95624.34;;;5.28;55.92
24160;BME280;62385;41.594;23.808;2024-01-11T12:48:00;95613.78;;;5.19;55.57
24160;BME280;62385;41.594;23.808;2024-01-11T12:50:27;95615.06;;;5.43;55.80
24160;BME280;62385;41.594;23.808;2024-01-11T12:55:33;95617.72;;;5.72;54.50
24160;BME280;62385;41.594;23.808;2024-01-11T12:58:07;95606.91;;;5.46;55.20
24160;BME280;62385;41.594;23.808;2024-01-11T13:00:35;95596.66;;;5.53;54.70
24160;BME280;62385;41.594;23.808;2024-01-11T13:03:02;95592.50;;;5.70;55.36
24160;BME280;62385;41.594;23.808;2024-01-11T13:05:28;95594.28;;;5.59;54.46
24160;BME280;62385;41.594;23.808;2024-01-11T13:07:54;95551.44;;;5.09;53.79
24160;BME280;62385;41.594;23.808;2024-01-11T13:10:19;95576.13;;;5.47;54.66
24160;BME280;62385;41.594;23.808;2024-01-11T13:12:45;95574.50;;;5.46;55.07
24160;BME280;62385;41.594;23.808;2024-01-11T13:15:11;95560.91;;;5.60;57.14
24160;BME280;62385;41.594;23.808;2024-01-11T13:17:38;95557.56;;;5.68;54.91
24160;BME280;62385;41.594;23.808;2024-01-11T13:20:04;95532.91;;;5.69;53.52
24160;BME280;62385;41.594;23.808;2024-01-11T13:22:30;95539.00;;;5.31;54.00
24160;BME280;62385;41.594;23.808;2024-01-11T13:24:56;95543.16;;;5.62;51.66
24160;BME280;62385;41.594;23.808;2024-01-11T13:27:21;95527.63;;;5.69;52.82